createdAt,value
2019-02-26T00:01:59.931Z,75.07
2019-02-26T00:07:01.628Z,75.96
2019-02-26T00:12:06.448Z,76.03
2019-02-26T00:17:13.041Z,75.57
2019-02-26T00:22:16.579Z,75.84
2019-02-26T00:27:19.594Z,75.02
2019-02-26T00:32:27.134Z,74.37
2019-02-26T00:37:31.368Z,73.60
2019-02-26T00:42:36.159Z,73.63
2019-02-26T00:47:39.545Z,75.07
2019-02-26T00:52:43.548Z,75.13
2019-02-26T00:57:45.560Z,75.77
2019-02-26T01:02:48.897Z,73.99
2019-02-26T01:07:52.564Z,74.94
2019-02-26T01:12:56.494Z,73.09
2019-02-26T01:18:01.428Z,74.77
2019-02-26T01:23:03.344Z,75.78
2019-02-26T01:28:08.384Z,77.70
2019-02-26T01:33:10.598Z,77.87
2019-02-26T01:38:14.836Z,76.89
2019-02-26T01:43:20.033Z,78.07
2019-02-26T01:48:24.301Z,76.02
2019-02-26T01:53:28.426Z,75.87
2019-02-26T01:58:33.481Z,76.17
2019-02-26T02:03:35.739Z,72.37
2019-02-26T02:08:41.305Z,72.52
2019-02-26T02:13:43.777Z,71.45
2019-02-26T02:18:48.080Z,70.47
2019-02-26T02:23:50.901Z,71.18
2019-02-26T02:28:56.506Z,72.35
2019-02-26T02:34:00.264Z,72.14
2019-02-26T02:39:02.303Z,73.37
2019-02-26T02:44:07.524Z,75.13
2019-02-26T02:49:10.399Z,75.14
2019-02-26T02:54:20.853Z,74.50
2019-02-26T02:59:22.318Z,74.56
2019-02-26T03:04:31.118Z,74.64
2019-02-26T03:09:43.231Z,74.46
2019-02-26T03:14:51.069Z,74.06
2019-02-26T03:19:55.860Z,75.85
2019-02-26T03:24:59.531Z,75.99
2019-02-26T03:30:06.943Z,76.15
2019-02-26T03:35:10.254Z,76.39
2019-02-26T03:40:17.308Z,77.28
2019-02-26T03:45:24.794Z,76.19
2019-02-26T03:50:28.688Z,77.43
2019-02-26T03:55:33.357Z,77.10
2019-02-26T04:00:37.636Z,76.33
2019-02-26T04:05:39.192Z,76.97
2019-02-26T04:10:41.379Z,77.78
2019-02-26T04:15:43.695Z,77.65
2019-02-26T04:20:45.815Z,77.27
2019-02-26T04:26:34.427Z,76.08
2019-02-26T04:32:23.559Z,74.35
2019-02-26T04:38:26.687Z,75.73
2019-02-26T04:44:31.348Z,75.90
2019-02-26T04:49:36.194Z,77.00
2019-02-26T04:54:39.858Z,77.44
2019-02-26T04:59:43.924Z,77.79
2019-02-26T05:04:52.648Z,77.56
2019-02-26T05:09:56.904Z,76.49
2019-02-26T05:15:00.760Z,75.09
2019-02-26T05:20:07.295Z,76.58
2019-02-26T05:25:17.049Z,77.50
2019-02-26T05:30:21.723Z,77.91
2019-02-26T05:35:25.276Z,77.65
2019-02-26T05:40:30.472Z,77.93
2019-02-26T05:45:35.759Z,76.44
2019-02-26T05:50:38.462Z,77.01
2019-02-26T05:55:47.782Z,76.84
2019-02-26T06:00:49.818Z,76.25
2019-02-26T06:05:54.933Z,77.26
2019-02-26T06:11:00.173Z,75.92
2019-02-26T06:16:04.790Z,75.16
2019-02-26T06:21:10.233Z,74.51
2019-02-26T06:26:17.859Z,74.89
2019-02-26T06:31:22.090Z,73.88
2019-02-26T06:36:25.781Z,74.58
2019-02-26T06:41:32.084Z,74.36
2019-02-26T06:46:35.915Z,74.04
2019-02-26T06:51:40.483Z,72.20
2019-02-26T06:56:46.121Z,72.09
2019-02-26T07:01:55.582Z,72.06
2019-02-26T07:07:04.439Z,71.14
2019-02-26T07:12:08.745Z,70.50
2019-02-26T07:17:13.681Z,71.02
2019-02-26T07:22:16.488Z,72.13
2019-02-26T07:27:22.911Z,70.15
2019-02-26T07:32:28.920Z,70.44
2019-02-26T07:37:33.266Z,70.12
2019-02-26T07:42:37.281Z,69.85
2019-02-26T07:47:41.142Z,68.88
2019-02-26T07:52:51.665Z,68.45
2019-02-26T07:57:53.389Z,68.91
2019-02-26T08:02:58.023Z,68.36
2019-02-26T08:08:00.863Z,67.64
2019-02-26T08:13:03.900Z,66.66
2019-02-26T08:18:09.504Z,65.52
2019-02-26T08:23:19.896Z,65.04
2019-02-26T08:28:24.824Z,64.07
2019-02-26T08:33:27.929Z,62.11
2019-02-26T08:38:30.310Z,59.51
2019-02-26T08:43:34.201Z,57.97
2019-02-26T08:48:36.286Z,57.37
2019-02-26T08:53:41.094Z,55.87
2019-02-26T08:58:45.355Z,55.88
2019-02-26T09:03:50.690Z,55.38
2019-02-26T09:08:55.155Z,55.57
2019-02-26T09:13:59.394Z,53.94
2019-02-26T09:19:01.654Z,54.73
2019-02-26T09:24:05.406Z,54.54
2019-02-26T09:29:12.572Z,53.94
2019-02-26T09:34:16.984Z,54.02
2019-02-26T09:39:22.946Z,53.05
2019-02-26T09:44:28.638Z,53.23
2019-02-26T09:49:33.147Z,54.34
2019-02-26T09:54:40.453Z,54.16
2019-02-26T09:59:39.988Z,54.54
2019-02-26T10:04:45.515Z,54.29
2019-02-26T10:09:48.580Z,52.91
2019-02-26T10:14:52.297Z,54.05
2019-02-26T10:19:59.353Z,53.26
2019-02-26T10:25:04.627Z,53.23
2019-02-26T10:30:11.293Z,55.10
2019-02-26T10:35:18.042Z,53.69
2019-02-26T10:40:19.713Z,53.72
2019-02-26T10:45:23.683Z,52.92
2019-02-26T10:50:31.130Z,52.76
2019-02-26T10:55:38.410Z,53.14
2019-02-26T11:00:38.147Z,50.98
2019-02-26T11:05:45.037Z,49.95
2019-02-26T11:10:52.194Z,50.72
2019-02-26T11:15:56.594Z,52.05
2019-02-26T11:21:00.840Z,48.86
2019-02-26T11:26:06.113Z,48.69
2019-02-26T11:31:14.042Z,47.51
2019-02-26T11:36:16.805Z,47.32
2019-02-26T11:41:18.960Z,46.21
2019-02-26T11:46:23.094Z,46.21
2019-02-26T11:51:24.946Z,44.88
2019-02-26T11:56:29.028Z,46.50
2019-02-26T12:01:32.237Z,47.39
2019-02-26T12:06:42.410Z,47.36
2019-02-26T12:11:44.621Z,48.10
2019-02-26T12:16:46.745Z,48.43
2019-02-26T12:21:49.513Z,47.49
2019-02-26T12:26:57.287Z,46.13
2019-02-26T12:32:04.578Z,44.31
2019-02-26T12:37:11.163Z,47.56
2019-02-26T12:42:18.474Z,46.13
2019-02-26T12:47:24.471Z,43.51
2019-02-26T12:52:26.915Z,45.71
2019-02-26T12:57:29.659Z,44.48
2019-02-26T13:02:36.924Z,46.05
2019-02-26T13:07:38.362Z,44.49
2019-02-26T13:12:47.133Z,44.68
2019-02-26T13:17:52.370Z,44.75
2019-02-26T13:23:00.594Z,42.35
2019-02-26T13:27:59.860Z,45.52
2019-02-26T13:33:05.239Z,43.77
2019-02-26T13:38:09.170Z,44.21
2019-02-26T13:43:13.931Z,45.66
2019-02-26T13:48:19.728Z,42.86
2019-02-26T13:53:26.575Z,45.66
2019-02-26T13:58:34.036Z,45.77
2019-02-26T14:03:39.210Z,45.44
2019-02-26T14:08:41.278Z,45.26
2019-02-26T14:13:43.314Z,45.21
2019-02-26T14:18:48.267Z,43.95
2019-02-26T14:23:52.788Z,43.84
2019-02-26T14:28:56.294Z,43.47
2019-02-26T14:34:00.141Z,43.26
2019-02-26T14:39:04.089Z,43.73
2019-02-26T14:44:06.145Z,43.14
2019-02-26T14:49:08.206Z,44.55
2019-02-26T14:54:10.501Z,44.47
2019-02-26T14:59:12.586Z,44.74
2019-02-26T15:04:14.860Z,45.66
2019-02-26T15:09:18.791Z,45.42
2019-02-26T15:14:23.917Z,45.46
2019-02-26T15:19:30.437Z,45.63
2019-02-26T15:24:40.695Z,44.68
2019-02-26T15:29:42.835Z,45.07
2019-02-26T15:34:45.103Z,44.73
2019-02-26T15:39:47.146Z,44.82
2019-02-26T15:44:49.178Z,46.03
2019-02-26T15:49:56.168Z,46.14
2019-02-26T15:55:01.034Z,46.33
2019-02-26T16:00:06.186Z,47.34
2019-02-26T16:05:11.019Z,46.65
2019-02-26T16:10:13.445Z,47.31
2019-02-26T16:15:17.528Z,47.90
2019-02-26T16:20:21.550Z,48.05
2019-02-26T16:25:26.781Z,47.83
2019-02-26T16:30:30.598Z,48.48
2019-02-26T16:35:37.258Z,48.78
2019-02-26T16:40:39.317Z,47.98
2019-02-26T16:45:45.761Z,48.48
2019-02-26T16:50:52.311Z,49.04
2019-02-26T16:55:54.681Z,49.40
2019-02-26T17:00:56.707Z,49.31
2019-02-26T17:05:59.156Z,50.23
2019-02-26T17:11:01.219Z,51.35
2019-02-26T17:16:05.745Z,51.62
2019-02-26T17:21:07.818Z,52.57
2019-02-26T17:26:09.920Z,54.23
2019-02-26T17:31:11.929Z,55.50
2019-02-26T17:36:20.861Z,57.40
2019-02-26T17:41:25.786Z,56.75
2019-02-26T17:46:28.101Z,56.75
2019-02-26T17:51:34.096Z,57.26
2019-02-26T17:56:39.154Z,58.07
2019-02-26T18:01:44.456Z,57.94
2019-02-26T18:06:46.512Z,59.09
2019-02-26T18:11:48.937Z,59.54
2019-02-26T18:16:51.132Z,60.51
2019-02-26T18:21:59.186Z,60.51
2019-02-26T18:27:03.682Z,61.30
2019-02-26T18:32:05.762Z,61.22
2019-02-26T18:37:07.880Z,61.86
2019-02-26T18:42:09.895Z,62.44
2019-02-26T18:47:14.013Z,63.43
2019-02-26T18:52:16.635Z,63.87
2019-02-26T18:57:22.690Z,64.08
2019-02-26T19:02:26.311Z,64.72
2019-02-26T19:07:33.105Z,64.30
2019-02-26T19:12:33.917Z,67.04
2019-02-26T19:17:36.088Z,65.62
2019-02-26T19:22:43.211Z,65.16
2019-02-26T19:27:45.343Z,64.56
2019-02-26T19:32:48.300Z,65.66
2019-02-26T19:37:57.124Z,66.30
2019-02-26T19:42:59.520Z,66.30
2019-02-26T19:48:01.629Z,66.46
2019-02-26T19:53:06.006Z,67.68
2019-02-26T19:58:09.711Z,67.39
2019-02-26T20:03:13.139Z,67.28
2019-02-26T20:08:17.837Z,67.67
2019-02-26T20:13:19.910Z,67.41
2019-02-26T20:18:25.843Z,67.71
2019-02-26T20:23:27.306Z,67.65
2019-02-26T20:28:29.325Z,67.80
2019-02-26T20:33:31.621Z,67.87
2019-02-26T20:38:35.289Z,67.89
2019-02-26T20:43:39.799Z,68.29
2019-02-26T20:48:41.818Z,69.18
2019-02-26T20:53:44.509Z,69.72
2019-02-26T20:58:46.698Z,68.84
2019-02-26T21:03:49.895Z,69.92
2019-02-26T21:08:53.319Z,70.07
2019-02-26T21:13:58.949Z,69.95
2019-02-26T21:19:02.873Z,70.62
2019-02-26T21:24:08.997Z,71.26
2019-02-26T21:29:15.715Z,71.32
2019-02-26T21:36:36.613Z,69.95
2019-02-26T21:41:40.775Z,70.78
2019-02-26T21:46:43.033Z,71.38
2019-02-26T21:51:47.803Z,70.46
2019-02-26T21:56:51.877Z,71.24
2019-02-26T22:01:53.988Z,72.57
2019-02-26T22:06:56.191Z,72.07
2019-02-26T22:11:58.462Z,71.94
2019-02-26T22:17:00.817Z,72.09
2019-02-26T22:22:05.298Z,72.10
2019-02-26T22:27:13.453Z,71.70
2019-02-26T22:32:21.762Z,72.20
2019-02-26T22:37:25.996Z,72.79
2019-02-26T22:42:28.139Z,73.25
2019-02-26T22:47:30.142Z,73.83
2019-02-26T22:52:35.199Z,73.77
2019-02-26T22:57:37.221Z,74.48
2019-02-26T23:02:40.819Z,73.85
2019-02-26T23:07:46.452Z,74.35
2019-02-26T23:12:48.630Z,75.00
2019-02-26T23:17:58.208Z,74.81
2019-02-26T23:22:57.820Z,75.12
2019-02-26T23:27:59.858Z,75.85
2019-02-26T23:33:07.853Z,75.81
2019-02-26T23:38:14.776Z,76.26
2019-02-26T23:43:18.892Z,75.83
2019-02-26T23:48:20.893Z,75.81
2019-02-26T23:53:22.961Z,76.14
2019-02-26T23:58:30.713Z,75.91
